Time;durP1;ratioP1;P1;durP2;ratioP2;P2;SDS_P1;SDS_P2;PMS_P1;PMS_P2;Temp;Humidity;BMP_temperature;BMP_pressure;BME280_temperature;BME280_humidity;BME280_pressure;Samples;Min_cycle;Max_cycle;Signal;HPM_P1;HPM_P2
2022/10/16 00:00:38;;;;;;;25.50;13.93;;;;;;;11.48;64.85;95896.38;5080882;28;20528;-75
2022/10/16 00:03:04;;;;;;;18.45;12.35;;;;;;;11.44;65.49;95896.09;5080757;28;20510;-75
2022/10/16 00:05:30;;;;;;;23.38;14.55;;;;;;;11.42;65.50;95910.72;5062954;28;20032;-75
2022/10/16 00:07:56;;;;;;;23.23;13.88;;;;;;;10.75;65.25;95806.13;5080669;28;20051;-75
2022/10/16 00:10:21;;;;;;;20.60;13.32;;;;;;;10.44;65.52;95762.75;5081519;28;20074;-75
2022/10/16 00:12:47;;;;;;;22.15;14.10;;;;;;;10.96;66.03;95851.31;5080990;28;20482;-75
2022/10/16 00:15:13;;;;;;;22.17;13.15;;;;;;;10.53;65.47;95800.16;5081058;28;20509;-75
2022/10/16 00:17:38;;;;;;;25.63;12.95;;;;;;;11.23;65.95;95915.66;5081853;28;20803;-75
2022/10/16 00:20:04;;;;;;;27.25;13.00;;;;;;;11.22;65.93;95909.56;5062273;28;20127;-75
2022/10/16 00:22:30;;;;;;;23.05;12.55;;;;;;;11.16;66.19;95907.16;5080057;28;20075;-75
2022/10/16 00:24:55;;;;;;;22.35;13.10;;;;;;;10.87;65.71;95872.25;5076394;28;20067;-76
2022/10/16 00:27:21;;;;;;;22.80;12.77;;;;;;;11.15;66.44;95910.84;5062438;28;20880;-75
2022/10/16 00:29:52;;;;;;;21.33;12.52;;;;;;;10.25;66.62;95782.00;5080360;28;20493;-75
2022/10/16 00:32:19;;;;;;;21.23;12.98;;;;;;;10.52;66.50;95842.88;5080310;28;20048;-75
2022/10/16 00:34:45;;;;;;;31.25;14.20;;;;;;;10.84;66.33;95897.44;5080919;28;20856;-76
2022/10/16 00:37:11;;;;;;;29.58;12.95;;;;;;;11.07;66.08;95932.56;5080730;28;20047;-76
2022/10/16 00:39:36;;;;;;;27.70;12.85;;;;;;;10.94;66.11;95922.44;5062731;28;20048;-76
2022/10/16 00:42:02;;;;;;;22.23;13.27;;;;;;;10.79;66.08;95888.66;5080434;28;20036;-76
2022/10/16 00:44:44;;;;;;;26.02;12.45;;;;;;;11.04;65.89;95925.94;5077432;28;20097;-76
2022/10/16 00:47:19;;;;;;;29.33;12.23;;;;;;;10.52;65.86;95846.34;5064704;28;20075;-76
2022/10/16 00:49:46;;;;;;;24.42;13.02;;;;;;;10.77;65.53;95883.59;5077696;28;20107;-76
2022/10/16 00:52:13;;;;;;;26.65;11.20;;;;;;;10.96;65.67;95925.63;5076123;28;20561;-76
2022/10/16 00:54:38;;;;;;;19.42;12.38;;;;;;;10.52;65.53;95854.28;5061124;28;20437;-76
2022/10/16 00:57:05;;;;;;;21.30;11.75;;;;;;;10.86;66.39;95917.59;5062042;28;20040;-76
2022/10/16 00:59:36;;;;;;;22.90;12.23;;;;;;;10.86;66.39;95915.75;5075922;28;20040;-76
2022/10/16 01:02:03;;;;;;;28.03;12.20;;;;;;;10.35;66.11;95848.34;5080166;28;20032;-76
2022/10/16 01:04:34;;;;;;;24.90;12.20;;;;;;;10.42;65.71;95864.81;5061731;28;20051;-76
2022/10/16 01:07:03;;;;;;;21.05;12.10;;;;;;;10.72;66.27;95927.88;5061570;28;20154;-76
2022/10/16 01:09:31;;;;;;;20.08;11.70;;;;;;;10.68;65.88;95932.88;5079870;28;20040;-76
2022/10/16 01:12:17;;;;;;;21.42;11.00;;;;;;;10.66;66.24;95929.72;5080027;28;20521;-77
2022/10/16 01:14:48;;;;;;;27.25;12.73;;;;;;;10.63;66.24;95935.50;5079295;28;20063;-77
2022/10/16 01:17:33;;;;;;;22.02;11.52;;;;;;;10.26;66.55;95887.78;5079608;28;20039;-76
2022/10/16 01:20:14;;;;;;;21.15;12.90;;;;;;;9.83;66.19;95817.19;5075019;28;20109;-76
2022/10/16 01:22:53;;;;;;;28.60;11.88;;;;;;;9.86;66.66;95832.56;5059692;28;20149;-76
2022/10/16 01:25:33;;;;;;;24.33;12.10;;;;;;;10.12;66.19;95869.88;5061187;28;20048;-76
2022/10/16 01:28:02;;;;;;;21.60;11.55;;;;;;;9.98;66.57;95848.31;5080060;28;20833;-76
2022/10/16 01:30:32;;;;;;;25.50;12.30;;;;;;;10.43;66.78;95916.81;5079410;28;20055;-76
2022/10/16 01:33:09;;;;;;;25.95;12.57;;;;;;;9.96;66.76;95851.22;5061503;28;20193;-77
2022/10/16 01:35:39;;;;;;;23.05;12.63;;;;;;;10.05;66.75;95867.44;5068881;28;20066;-76
2022/10/16 01:38:12;;;;;;;25.52;12.88;;;;;;;10.41;67.01;95918.91;5053305;28;20048;-76
2022/10/16 01:40:42;;;;;;;22.88;12.00;;;;;;;9.73;66.51;95803.06;5069771;28;20040;-77
2022/10/16 01:43:19;;;;;;;23.50;12.45;;;;;;;10.39;66.36;95919.16;5079142;28;20054;-76
2022/10/16 01:45:45;;;;;;;24.77;12.77;;;;;;;10.34;67.72;95927.09;5074212;28;20055;-76
2022/10/16 01:48:14;;;;;;;25.80;12.00;;;;;;;10.12;66.72;95891.88;5051939;28;20040;-76
2022/10/16 01:50:43;;;;;;;29.38;12.88;;;;;;;10.43;67.11;95930.88;5078217;28;20062;-74
2022/10/16 01:53:12;;;;;;;25.67;12.48;;;;;;;9.74;67.01;95823.19;5079293;28;20043;-75
2022/10/16 01:55:44;;;;;;;26.70;12.57;;;;;;;10.20;66.54;95896.75;5073573;28;20123;-75
2022/10/16 01:58:11;;;;;;;24.63;12.85;;;;;;;9.76;66.88;95829.84;5073134;28;20040;-76
2022/10/16 02:00:39;;;;;;;20.13;11.98;;;;;;;9.96;67.03;95876.91;5058031;28;20044;-74
2022/10/16 02:03:06;;;;;;;22.52;13.15;;;;;;;10.40;66.82;95935.88;5073468;28;20063;-75
2022/10/16 02:05:55;;;;;;;29.33;13.10;;;;;;;9.99;66.77;95887.00;5038154;28;20040;-75
2022/10/16 02:08:23;;;;;;;20.45;11.68;;;;;;;9.92;66.81;95871.28;5061479;28;20033;-74
2022/10/16 02:10:49;;;;;;;18.23;11.55;;;;;;;10.10;66.82;95907.22;5058458;28;20037;-75
2022/10/16 02:13:26;;;;;;;21.60;13.57;;;;;;;10.16;66.95;95911.50;5057926;28;20043;-75
2022/10/16 02:15:52;;;;;;;23.15;12.93;;;;;;;10.09;66.49;95895.03;5050226;28;20044;-76
2022/10/16 02:18:17;;;;;;;24.13;12.27;;;;;;;10.29;66.55;95929.69;5056535;28;20041;-76
2022/10/16 02:20:57;;;;;;;20.15;11.73;;;;;;;10.37;67.40;95954.94;5073523;28;20071;-75
2022/10/16 02:23:51;;;;;;;22.02;11.27;;;;;;;10.37;66.31;95961.06;5059456;28;20458;-75
2022/10/16 02:26:27;;;;;;;22.67;11.50;;;;;;;10.20;66.68;95933.06;5040962;28;20159;-75
2022/10/16 02:28:58;;;;;;;23.60;11.73;;;;;;;10.34;66.75;95955.44;5078329;28;20051;-75
2022/10/16 02:31:31;;;;;;;24.23;12.48;;;;;;;9.96;66.81;95898.09;5078197;28;20503;-76
2022/10/16 02:33:59;;;;;;;23.45;12.35;;;;;;;10.37;66.65;95960.25;5074165;28;20125;-75
2022/10/16 02:36:27;;;;;;;22.38;12.02;;;;;;;9.75;66.75;95878.59;5060810;28;20055;-75
2022/10/16 02:38:53;;;;;;;15.77;10.18;;;;;;;10.31;66.55;95961.25;5070052;28;20372;-75
2022/10/16 02:41:21;;;;;;;19.30;11.15;;;;;;;9.97;66.51;95899.69;5078804;28;20055;-75
2022/10/16 02:43:47;;;;;;;21.40;11.43;;;;;;;9.79;66.83;95874.38;5078178;28;20078;-75
2022/10/16 02:46:12;;;;;;;25.20;11.52;;;;;;;10.02;66.53;95918.28;5078019;28;20822;-75
2022/10/16 02:48:39;;;;;;;19.17;11.65;;;;;;;9.95;66.65;95912.41;5073633;28;20040;-74
2022/10/16 02:51:04;;;;;;;19.10;10.05;;;;;;;10.16;66.06;95940.66;5070445;28;20047;-75
2022/10/16 02:53:30;;;;;;;31.08;11.30;;;;;;;9.95;66.88;95915.84;5066510;28;20047;-76
2022/10/16 02:55:55;;;;;;;23.83;11.18;;;;;;;9.72;65.83;95881.72;5077599;28;20494;-74
2022/10/16 02:58:21;;;;;;;18.55;10.52;;;;;;;9.63;66.16;95880.56;5075050;28;20040;-76
2022/10/16 03:00:46;;;;;;;17.13;9.88;;;;;;;10.29;65.84;95972.13;5065985;28;20798;-75
2022/10/16 03:03:12;;;;;;;24.40;11.27;;;;;;;9.66;65.88;95877.44;5071936;28;20132;-75
2022/10/16 03:05:37;;;;;;;26.10;12.07;;;;;;;10.11;66.01;95980.38;5075430;28;20879;-76
2022/10/16 03:08:03;;;;;;;21.15;10.25;;;;;;;10.16;66.26;95975.13;5051838;28;20047;-75
2022/10/16 03:10:28;;;;;;;23.27;10.95;;;;;;;9.67;66.36;95913.47;5075424;28;20108;-75
2022/10/16 03:12:54;;;;;;;17.83;10.05;;;;;;;9.92;66.30;95982.56;5075063;28;20046;-75
2022/10/16 03:15:19;;;;;;;20.42;11.35;;;;;;;9.57;66.44;95927.38;5075560;28;20118;-76
2022/10/16 03:17:45;;;;;;;19.17;8.95;;;;;;;9.92;66.21;95984.44;5076574;28;20070;-76
2022/10/16 03:20:10;;;;;;;18.08;9.75;;;;;;;8.95;66.63;95839.59;5077391;28;20116;-75
2022/10/16 03:22:36;;;;;;;18.75;9.50;;;;;;;9.76;65.93;95962.28;5060206;28;20186;-75
2022/10/16 03:25:01;;;;;;;20.58;9.90;;;;;;;9.33;65.81;95883.69;5073613;28;20047;-75
2022/10/16 03:27:27;;;;;;;17.10;8.90;;;;;;;9.92;66.59;95992.38;5077422;28;20070;-75
2022/10/16 03:29:52;;;;;;;17.38;9.40;;;;;;;9.47;66.44;95919.31;5077284;28;20036;-75
2022/10/16 03:32:19;;;;;;;18.08;10.05;;;;;;;9.52;66.04;95935.28;5077901;28;20170;-75
2022/10/16 03:34:45;;;;;;;18.15;9.27;;;;;;;9.02;66.46;95871.97;5078020;28;20089;-76
2022/10/16 03:37:10;;;;;;;18.27;10.23;;;;;;;9.77;66.35;95987.72;5076259;28;20081;-76
2022/10/16 03:39:36;;;;;;;22.42;10.02;;;;;;;9.26;66.44;95920.94;5058192;28;20143;-75
2022/10/16 03:42:01;;;;;;;22.63;10.55;;;;;;;9.01;66.48;95877.50;5076890;28;20046;-76
2022/10/16 03:44:27;;;;;;;20.15;10.73;;;;;;;9.28;66.92;95926.81;5058167;28;20051;-76
2022/10/16 03:46:52;;;;;;;21.83;9.88;;;;;;;9.65;66.63;95987.84;5059001;28;20044;-75
2022/10/16 03:49:17;;;;;;;20.98;10.70;;;;;;;8.93;66.63;95867.34;5076830;28;20032;-74
2022/10/16 03:51:43;;;;;;;23.20;10.75;;;;;;;9.65;66.61;95987.84;5058042;28;20168;-76
2022/10/16 03:54:10;;;;;;;24.52;10.80;;;;;;;8.74;66.43;95846.50;5076691;28;20043;-75
2022/10/16 03:56:35;;;;;;;19.58;10.30;;;;;;;9.67;66.51;95982.31;5076552;28;20077;-76
2022/10/16 03:59:01;;;;;;;21.52;9.43;;;;;;;9.66;66.58;95978.06;5077441;28;20040;-75
2022/10/16 04:01:26;;;;;;;14.63;9.05;;;;;;;9.46;66.93;95949.50;5058344;28;20894;-76
2022/10/16 04:03:51;;;;;;;15.00;9.27;;;;;;;9.23;66.66;95918.00;5058331;28;20051;-76
2022/10/16 04:06:17;;;;;;;17.25;8.93;;;;;;;9.05;67.09;95892.63;5077437;28;20070;-76
2022/10/16 04:08:44;;;;;;;22.02;10.15;;;;;;;9.62;67.24;95982.25;5058862;28;20043;-75
2022/10/16 04:11:09;;;;;;;25.67;10.23;;;;;;;9.14;66.44;95909.69;5058658;28;20536;-76
2022/10/16 04:13:34;;;;;;;18.55;11.07;;;;;;;8.81;66.80;95859.53;5077118;28;20039;-76
2022/10/16 04:16:00;;;;;;;26.15;12.48;;;;;;;9.23;66.51;95949.75;5055375;28;20151;-75
2022/10/16 04:18:27;;;;;;;21.70;10.82;;;;;;;8.62;66.88;95859.00;5076838;28;20044;-76
2022/10/16 04:20:53;;;;;;;19.45;10.73;;;;;;;9.04;66.49;95911.41;5076371;28;20047;-76
2022/10/16 04:23:18;;;;;;;21.33;9.45;;;;;;;9.19;66.44;95946.00;5076968;28;20036;-75
2022/10/16 04:25:43;;;;;;;28.27;10.98;;;;;;;9.23;66.47;95949.75;5077107;28;20728;-76
2022/10/16 04:28:09;;;;;;;20.30;10.57;;;;;;;9.45;66.46;95986.81;5059204;28;20036;-76
2022/10/16 04:30:34;;;;;;;20.23;9.60;;;;;;;9.15;66.81;95943.06;5076744;28;20036;-76
2022/10/16 04:33:00;;;;;;;18.83;10.35;;;;;;;8.83;66.99;95897.94;5058668;28;20040;-75
2022/10/16 04:35:25;;;;;;;18.52;10.52;;;;;;;8.49;66.90;95854.88;5079284;28;20048;-76
2022/10/16 04:37:51;;;;;;;21.33;10.68;;;;;;;8.81;66.72;95909.78;5080841;28;20124;-75
2022/10/16 04:40:17;;;;;;;22.13;10.85;;;;;;;9.22;67.03;95970.13;5061498;28;20044;-76
2022/10/16 04:42:42;;;;;;;24.17;11.55;;;;;;;8.92;66.73;95924.75;5078074;28;20510;-75
2022/10/16 04:45:08;;;;;;;23.38;10.68;;;;;;;9.38;66.51;96005.53;5080112;28;20042;-75
2022/10/16 04:47:34;;;;;;;23.08;11.38;;;;;;;8.94;66.67;95945.66;5061209;28;20048;-75
2022/10/16 04:50:01;;;;;;;24.92;9.90;;;;;;;9.30;66.76;95998.03;5079515;28;20047;-75
2022/10/16 04:52:26;;;;;;;18.23;9.45;;;;;;;9.34;66.92;96006.25;5077193;28;20044;-76
2022/10/16 04:54:52;;;;;;;23.55;10.38;;;;;;;9.03;66.89;95971.44;5080262;28;20055;-75
2022/10/16 04:57:17;;;;;;;23.90;10.90;;;;;;;9.32;66.62;96027.69;5061162;28;20046;-76
2022/10/16 04:59:42;;;;;;;20.88;10.55;;;;;;;8.81;66.76;95952.09;5080065;28;20430;-75
2022/10/16 05:02:08;;;;;;;24.48;11.38;;;;;;;9.29;67.05;96028.19;5078931;28;20172;-76
2022/10/16 05:04:34;;;;;;;33.85;12.15;;;;;;;9.03;67.22;95991.81;5080000;28;20117;-76
2022/10/16 05:06:59;;;;;;;23.90;12.18;;;;;;;9.16;67.05;96010.78;5079797;28;20058;-76
2022/10/16 05:09:25;;;;;;;22.27;11.98;;;;;;;8.83;66.84;95961.41;5072810;28;20114;-76
2022/10/16 05:11:50;;;;;;;28.20;12.20;;;;;;;9.31;66.74;96035.88;5069092;28;20506;-75
2022/10/16 05:14:15;;;;;;;29.50;11.35;;;;;;;8.89;66.84;95968.34;5060866;28;20509;-76
2022/10/16 05:16:41;;;;;;;32.00;11.85;;;;;;;9.10;66.92;95997.72;5079959;28;20032;-75
2022/10/16 05:19:07;;;;;;;26.83;11.77;;;;;;;8.92;66.55;95968.94;5061151;28;20051;-76
2022/10/16 05:21:32;;;;;;;28.05;11.23;;;;;;;8.99;66.82;95980.94;5061178;28;20048;-75
2022/10/16 05:23:58;;;;;;;23.45;10.77;;;;;;;8.50;66.83;95904.06;5079122;28;20249;-77
2022/10/16 05:26:23;;;;;;;26.95;11.40;;;;;;;9.38;66.58;96042.59;5080053;28;20036;-76
2022/10/16 05:28:49;;;;;;;23.63;11.55;;;;;;;9.39;66.98;96040.72;5079774;28;20185;-76
2022/10/16 05:31:15;;;;;;;21.77;11.38;;;;;;;9.13;67.02;96000.72;5079376;28;20139;-76
2022/10/16 05:33:41;;;;;;;31.48;11.88;;;;;;;9.08;66.88;95997.97;5077237;28;20054;-76
2022/10/16 05:36:08;;;;;;;29.85;11.30;;;;;;;9.44;66.91;96048.75;5078683;28;20086;-76
2022/10/16 05:38:35;;;;;;;24.40;11.18;;;;;;;9.41;67.26;96050.03;5079276;28;20128;-76
2022/10/16 05:41:01;;;;;;;25.25;12.18;;;;;;;9.44;67.52;96051.41;5078876;28;20044;-75
2022/10/16 05:43:28;;;;;;;22.35;11.23;;;;;;;9.48;66.97;96048.00;5060136;28;20128;-77
2022/10/16 05:45:58;;;;;;;26.27;12.05;;;;;;;9.51;67.71;96049.38;5060341;28;20044;-76
2022/10/16 05:48:23;;;;;;;25.70;12.35;;;;;;;9.55;67.45;96058.44;5060754;28;20044;-75
2022/10/16 05:51:08;;;;;;;33.45;11.27;;;;;;;9.13;67.09;95987.47;5077503;28;20487;-76
2022/10/16 05:53:35;;;;;;;27.83;12.60;;;;;;;8.92;67.01;95953.06;5059895;28;20040;-75
2022/10/16 05:56:01;;;;;;;40.65;15.18;;;;;;;9.54;66.76;96044.38;5078229;28;20044;-76
2022/10/16 05:58:35;;;;;;;29.20;13.13;;;;;;;8.97;66.79;95969.78;5078281;28;20045;-76
2022/10/16 06:01:12;;;;;;;25.42;13.23;;;;;;;8.98;66.38;95946.78;5060719;28;20062;-76
2022/10/16 06:03:38;;;;;;;26.25;12.20;;;;;;;9.83;66.67;96076.81;5059670;28;20040;-76
2022/10/16 06:06:15;;;;;;;21.38;11.52;;;;;;;9.63;66.79;96042.13;5059500;28;20093;-76
2022/10/16 06:08:42;;;;;;;21.38;12.32;;;;;;;9.90;66.41;96085.38;5076599;28;20055;-76
2022/10/16 06:11:10;;;;;;;25.77;11.98;;;;;;;9.89;66.71;96085.63;5077219;28;20054;-75
2022/10/16 06:13:36;;;;;;;19.80;12.00;;;;;;;9.54;66.31;96033.00;5060175;28;20044;-76
2022/10/16 06:16:03;;;;;;;25.73;11.88;;;;;;;9.89;66.31;96094.38;5059612;28;20144;-75
2022/10/16 06:18:29;;;;;;;20.92;12.18;;;;;;;9.95;66.12;96096.03;5078051;28;20083;-76
2022/10/16 06:20:56;;;;;;;30.17;11.93;;;;;;;9.97;65.81;96095.78;5077886;28;20748;-75
2022/10/16 06:23:22;;;;;;;32.53;12.68;;;;;;;9.99;66.42;96099.78;5077700;28;20044;-76
2022/10/16 06:25:47;;;;;;;24.70;12.55;;;;;;;9.76;66.13;96060.31;5077639;28;20048;-76
2022/10/16 06:28:16;;;;;;;27.98;13.95;;;;;;;9.74;66.04;96053.66;5078285;28;20101;-75
2022/10/16 06:30:43;;;;;;;22.67;13.32;;;;;;;9.75;66.33;96057.91;5077465;28;20066;-77
2022/10/16 06:33:12;;;;;;;23.63;13.60;;;;;;;9.93;66.30;96082.22;5058853;28;20078;-76
2022/10/16 06:35:37;;;;;;;29.45;14.18;;;;;;;9.73;65.94;96034.31;5076731;28;20843;-76
2022/10/16 06:38:03;;;;;;;29.95;13.65;;;;;;;9.68;65.61;96013.88;5077785;28;20044;-76
2022/10/16 06:40:28;;;;;;;30.33;13.15;;;;;;;10.19;66.11;96109.88;5077788;28;20036;-77
2022/10/16 06:42:57;;;;;;;19.33;12.55;;;;;;;10.28;66.20;96108.38;5059082;28;20162;-77
2022/10/16 06:45:23;;;;;;;23.25;13.43;;;;;;;10.29;65.77;96107.34;5076939;28;20102;-76
2022/10/16 06:47:48;;;;;;;32.65;14.88;;;;;;;9.87;65.65;96051.41;5077855;28;20039;-75
2022/10/16 06:50:14;;;;;;;22.48;13.90;;;;;;;10.12;65.45;96081.91;5078266;28;20102;-76
2022/10/16 06:52:39;;;;;;;24.35;13.98;;;;;;;9.78;65.60;96029.06;5078005;28;20078;-77
2022/10/16 06:55:05;;;;;;;22.73;13.43;;;;;;;10.30;65.39;96111.56;5077217;28;20127;-74
2022/10/16 06:57:31;;;;;;;25.27;13.75;;;;;;;10.50;65.29;96132.22;5076168;28;20461;-76
2022/10/16 06:59:56;;;;;;;20.95;12.55;;;;;;;10.40;64.83;96108.22;5077388;28;20173;-75
2022/10/16 07:02:21;;;;;;;29.20;15.48;;;;;;;10.03;65.29;96042.59;5077461;28;20070;-76
2022/10/16 07:04:47;;;;;;;23.88;13.30;;;;;;;10.24;65.60;96091.34;5077027;28;20052;-76
2022/10/16 07:07:12;;;;;;;23.85;12.60;;;;;;;10.55;65.97;96137.56;5076883;28;20036;-76
2022/10/16 07:09:38;;;;;;;28.77;14.13;;;;;;;10.12;65.50;96061.50;5059410;28;20417;-76
2022/10/16 07:12:04;;;;;;;19.55;13.50;;;;;;;10.01;65.46;96044.69;5077233;28;20802;-75
2022/10/16 07:14:29;;;;;;;25.83;13.52;;;;;;;10.69;65.13;96141.41;5077422;28;20032;-76
2022/10/16 07:16:55;;;;;;;26.67;12.88;;;;;;;10.33;64.82;96079.25;5076691;28;20132;-76
2022/10/16 07:19:20;;;;;;;22.10;12.70;;;;;;;10.35;65.27;96071.06;5077480;28;20108;-76
2022/10/16 07:21:46;;;;;;;22.45;12.93;;;;;;;9.49;64.98;95919.88;5058251;28;20052;-75
2022/10/16 07:24:14;;;;;;;21.33;12.13;;;;;;;10.80;64.77;96142.31;5076730;28;20410;-76
2022/10/16 07:26:40;;;;;;;16.10;11.85;;;;;;;10.81;65.40;96146.59;5057951;28;20036;-77
2022/10/16 07:29:15;;;;;;;20.73;12.63;;;;;;;10.90;64.92;96146.94;5058927;28;20085;-76
2022/10/16 07:31:40;;;;;;;22.23;13.60;;;;;;;10.93;64.68;96141.09;5058936;28;20514;-76
2022/10/16 07:34:06;;;;;;;26.88;12.35;;;;;;;10.79;64.43;96120.28;5077537;28;20121;-75
2022/10/16 07:36:31;;;;;;;21.95;11.70;;;;;;;11.00;64.64;96147.00;5058399;28;20059;-75
2022/10/16 07:38:57;;;;;;;18.23;11.27;;;;;;;11.07;64.62;96142.28;5058549;28;20524;-76
2022/10/16 07:41:22;;;;;;;19.40;11.07;;;;;;;10.97;64.69;96143.03;5056940;28;20036;-76
2022/10/16 07:43:50;;;;;;;19.17;11.45;;;;;;;11.04;64.54;96164.84;5076893;28;20036;-76
2022/10/16 07:46:16;;;;;;;21.35;12.35;;;;;;;10.48;64.93;96061.91;5076490;28;20060;-77
2022/10/16 07:48:45;;;;;;;20.10;11.32;;;;;;;10.99;65.21;96140.09;5076912;28;20105;-77
2022/10/16 07:51:12;;;;;;;16.77;11.57;;;;;;;10.78;65.99;96116.03;5077176;28;20044;-77
2022/10/16 07:53:37;;;;;;;15.90;10.55;;;;;;;10.71;65.88;96088.09;5057096;28;20063;-76
2022/10/16 07:56:05;;;;;;;17.95;9.57;;;;;;;10.74;65.95;96087.63;5058528;28;20580;-77
2022/10/16 07:58:31;;;;;;;16.33;10.15;;;;;;;11.13;65.22;96139.44;5077198;28;20040;-76
2022/10/16 08:00:57;;;;;;;19.30;9.75;;;;;;;10.48;64.50;96025.56;5072465;28;20674;-76
2022/10/16 08:03:24;;;;;;;16.73;10.43;;;;;;;11.36;64.75;96148.91;5070470;28;20224;-76
2022/10/16 08:05:50;;;;;;;21.05;10.93;;;;;;;11.38;64.22;96149.44;5065795;28;20040;-77
2022/10/16 08:08:17;;;;;;;18.85;10.90;;;;;;;11.11;64.65;96101.72;5076105;28;20043;-76
2022/10/16 08:10:43;;;;;;;20.45;9.52;;;;;;;10.79;64.43;96040.69;5080173;28;20043;-77
2022/10/16 08:13:08;;;;;;;18.35;10.23;;;;;;;11.45;64.72;96127.97;5080693;28;20040;-76
2022/10/16 08:15:34;;;;;;;17.33;10.77;;;;;;;11.59;64.70;96145.88;5062409;28;20039;-78
2022/10/16 08:18:04;;;;;;;17.65;11.55;;;;;;;11.24;64.81;96081.91;5061590;28;20040;-77
2022/10/16 08:20:32;;;;;;;21.58;10.75;;;;;;;11.16;65.08;96069.88;5062105;28;20101;-77
2022/10/16 08:22:58;;;;;;;19.60;10.60;;;;;;;11.71;64.62;96158.97;5080461;28;20087;-77
2022/10/16 08:25:24;;;;;;;26.55;9.75;;;;;;;11.65;64.30;96122.00;5080445;28;20048;-77
2022/10/16 08:27:50;;;;;;;16.33;9.73;;;;;;;11.90;64.29;96141.56;5061717;28;20486;-76
2022/10/16 08:30:20;;;;;;;24.05;13.40;;;;;;;11.93;64.02;96143.72;5080982;28;20115;-76
2022/10/16 08:32:45;;;;;;;21.27;12.48;;;;;;;11.93;63.82;96134.94;5080758;28;20040;-76
2022/10/16 08:35:12;;;;;;;16.25;10.10;;;;;;;12.06;63.81;96133.66;5080974;28;20055;-76
2022/10/16 08:37:38;;;;;;;15.93;9.15;;;;;;;12.08;63.43;96155.47;5062022;28;20042;-77
2022/10/16 08:40:06;;;;;;;22.08;8.55;;;;;;;12.13;63.55;96145.66;5061666;28;20142;-77
2022/10/16 08:42:52;;;;;;;13.27;7.18;;;;;;;12.18;63.19;96139.59;5080196;28;20044;-76
2022/10/16 08:45:26;;;;;;;16.13;6.75;;;;;;;12.29;62.83;96138.53;5080657;28;20079;-77
2022/10/16 08:48:01;;;;;;;14.90;7.65;;;;;;;12.35;62.18;96146.31;5080000;28;20040;-78
2022/10/16 08:50:29;;;;;;;16.50;7.70;;;;;;;12.42;60.98;96145.25;5076265;28;20324;-77
2022/10/16 08:52:55;;;;;;;14.45;7.60;;;;;;;12.26;61.01;96128.44;5071543;28;20151;-77
2022/10/16 08:55:42;;;;;;;12.93;6.82;;;;;;;12.50;60.96;96147.41;5042124;28;20076;-77
2022/10/16 08:58:16;;;;;;;17.67;6.30;;;;;;;11.98;59.41;96053.34;5069996;28;20132;-76
2022/10/16 09:00:43;;;;;;;15.57;6.25;;;;;;;12.63;58.58;96153.03;5050221;28;20805;-76
2022/10/16 09:03:27;;;;;;;13.23;6.43;;;;;;;12.66;58.58;96144.50;5060929;28;20166;-76
2022/10/16 09:06:32;;;;;;;9.45;4.88;;;;;;;12.19;58.43;96062.22;5060595;28;20074;-76
2022/10/16 09:09:00;;;;;;;9.82;5.28;;;;;;;12.83;57.56;96143.47;5047623;28;20055;-77
2022/10/16 09:11:44;;;;;;;15.18;5.60;;;;;;;12.85;57.49;96149.34;5079705;28;20036;-76
2022/10/16 09:14:55;;;;;;;9.73;5.65;;;;;;;12.91;55.97;96148.28;5079465;28;20048;-76
2022/10/16 09:17:41;;;;;;;12.13;4.90;;;;;;;12.99;56.01;96140.59;5033602;28;20047;-77
2022/10/16 09:20:22;;;;;;;9.43;4.95;;;;;;;13.04;55.60;96137.94;5078334;28;20086;-75
2022/10/16 09:22:48;;;;;;;6.97;4.70;;;;;;;12.86;56.73;96098.50;5075504;28;20775;-77
2022/10/16 09:25:21;;;;;;;10.68;4.80;;;;;;;13.13;54.31;96136.34;5067513;28;20043;-78
2022/10/16 09:27:51;;;;;;;9.40;5.05;;;;;;;13.04;54.45;96113.19;5079883;28;20087;-78
2022/10/16 09:30:18;;;;;;;11.55;5.38;;;;;;;13.07;54.84;96110.75;5079043;28;20076;-77
2022/10/16 09:32:47;;;;;;;9.65;4.78;;;;;;;13.20;55.96;96122.00;5079411;28;20549;-77
2022/10/16 09:35:19;;;;;;;12.07;5.10;;;;;;;13.46;55.81;96136.91;5061069;28;20047;-76
2022/10/16 09:37:48;;;;;;;7.85;5.00;;;;;;;13.49;54.85;96139.84;5078171;28;20607;-77
2022/10/16 09:40:36;;;;;;;7.93;4.65;;;;;;;13.52;54.63;96127.81;5060323;28;20052;-77
2022/10/16 09:43:32;;;;;;;20.25;5.65;;;;;;;13.32;53.03;96111.88;5060643;28;20490;-78
2022/10/16 09:46:02;;;;;;;8.13;5.15;;;;;;;13.53;53.32;96138.22;5060699;28;20075;-78
2022/10/16 09:48:55;;;;;;;9.38;4.85;;;;;;;13.85;53.11;96121.09;5061130;28;20050;-78
2022/10/16 09:51:25;;;;;;;13.02;5.35;;;;;;;14.52;51.73;96075.22;5057668;28;20055;-78
2022/10/16 09:53:59;;;;;;;10.05;4.57;;;;;;;15.79;47.88;96044.78;5079376;28;20048;-77
2022/10/16 09:56:36;;;;;;;8.02;4.32;;;;;;;17.21;44.94;96058.88;5072471;28;20059;-77
2022/10/16 09:59:10;;;;;;;12.63;4.45;;;;;;;19.00;42.44;96103.41;5077734;28;20055;-77
2022/10/16 10:01:39;;;;;;;8.90;4.25;;;;;;;19.80;38.49;96059.47;5042798;28;20810;-78
2022/10/16 10:04:05;;;;;;;7.55;3.95;;;;;;;21.16;36.12;96079.75;5079488;28;20426;-78
2022/10/16 10:06:39;;;;;;;6.45;4.15;;;;;;;21.86;35.76;96029.09;5076773;28;20040;-78
2022/10/16 10:09:26;;;;;;;5.97;3.50;;;;;;;23.45;32.49;96110.13;5072746;28;20052;-78
2022/10/16 10:11:54;;;;;;;7.90;3.33;;;;;;;24.12;31.43;96090.78;5071297;28;20040;-78
2022/10/16 10:14:38;;;;;;;5.95;3.30;;;;;;;24.46;29.16;96100.41;5077642;28;20466;-78
2022/10/16 10:17:06;;;;;;;6.22;3.70;;;;;;;24.96;28.59;96101.94;5058903;28;20044;-78
2022/10/16 10:19:55;;;;;;;10.48;3.85;;;;;;;25.38;28.60;96097.75;5058942;28;20427;-78
2022/10/16 10:22:28;;;;;;;9.07;3.88;;;;;;;25.08;27.88;96093.78;5039391;28;20081;-78
2022/10/16 10:24:55;;;;;;;7.20;4.57;;;;;;;25.25;28.06;96090.78;5078471;28;20058;-78
2022/10/16 10:27:27;;;;;;;7.18;3.42;;;;;;;25.41;27.70;96100.91;5070508;28;20048;-78
2022/10/16 10:30:05;;;;;;;6.45;4.32;;;;;;;25.18;27.94;96058.00;5076959;28;20145;-78
2022/10/16 10:32:37;;;;;;;6.63;3.85;;;;;;;25.84;27.54;96087.38;5078557;28;20112;-77
2022/10/16 10:35:14;;;;;;;16.60;4.35;;;;;;;25.95;27.30;96093.84;5077286;28;20108;-78
2022/10/16 10:38:03;;;;;;;8.93;3.67;;;;;;;25.28;28.30;96092.03;5059987;28;20732;-77
2022/10/16 10:40:40;;;;;;;10.80;3.88;;;;;;;25.59;28.06;96088.63;5078571;28;20564;-76
2022/10/16 10:43:20;;;;;;;10.68;4.03;;;;;;;25.44;28.31;96063.00;5077318;28;20036;-79
2022/10/16 10:45:48;;;;;;;8.80;3.90;;;;;;;25.73;28.48;96078.94;5078384;28;20489;-78
2022/10/16 10:48:35;;;;;;;8.05;3.95;;;;;;;25.49;28.30;96079.03;5078622;28;20043;-78
2022/10/16 10:51:10;;;;;;;6.95;3.67;;;;;;;25.41;28.25;96024.88;5059714;28;20755;-79
2022/10/16 10:54:23;;;;;;;6.78;4.00;;;;;;;25.80;27.17;96063.94;5075987;28;20040;-78
2022/10/16 10:56:57;;;;;;;7.40;3.72;;;;;;;25.72;26.71;96071.91;5044262;28;20040;-79
2022/10/16 10:59:41;;;;;;;9.50;4.00;;;;;;;25.10;27.28;96067.06;5059483;28;20051;-78
2022/10/16 11:02:17;;;;;;;10.93;4.00;;;;;;;25.05;27.13;96018.47;5060021;28;20040;-79
2022/10/16 11:05:09;;;;;;;7.68;3.47;;;;;;;25.18;26.94;96062.63;5059745;28;20517;-78
2022/10/16 11:07:43;;;;;;;7.85;3.75;;;;;;;24.49;27.96;96066.38;5072892;28;20052;-78
2022/10/16 11:10:53;;;;;;;5.95;3.80;;;;;;;24.54;27.94;96055.34;5059861;28;20572;-77
2022/10/16 11:13:59;;;;;;;6.65;3.38;;;;;;;24.58;28.00;96059.72;5047948;28;20093;-77
2022/10/16 11:17:12;;;;;;;6.03;3.97;;;;;;;24.25;28.64;96045.53;5077364;28;20865;-76
2022/10/16 11:19:51;;;;;;;10.05;3.58;;;;;;;24.40;28.69;96052.97;5040431;28;20113;-77
2022/10/16 11:22:24;;;;;;;8.93;4.00;;;;;;;24.49;28.33;96047.41;5077187;28;20505;-78
2022/10/16 11:25:11;;;;;;;6.53;3.85;;;;;;;24.65;28.21;96055.63;5058432;28;20071;-78
2022/10/16 11:28:00;;;;;;;7.30;3.80;;;;;;;24.60;28.57;96043.13;5043763;28;20037;-79
2022/10/16 11:30:30;;;;;;;5.45;3.53;;;;;;;24.09;28.64;95914.53;5028443;28;20054;-78
2022/10/16 11:33:07;;;;;;;7.43;3.05;;;;;;;25.03;27.31;96042.44;5058936;28;20044;-75
2022/10/16 11:35:43;;;;;;;8.82;3.72;;;;;;;25.05;28.03;96050.25;5066588;28;20036;-78
2022/10/16 11:38:36;;;;;;;6.75;4.05;;;;;;;25.22;27.06;96033.69;5077977;28;20526;-78